Pagrindinis puslapis
METAR-TAF:

METAR-TAF

Oro uostai :

Nantucket, Masačusetsas, Jungtinės Amerikos Valstijos

platuma: 41-15-14N, ilguma: 070-03-35W, Aukštis: 14 m

Dabartinis oras

Ataskaita buvo paskelbta 33 minutes, ne 06:53 UTC
Vėjas 23 kt iš Vakarų su gūsio iki 31 kt
Temperatūra 2°C
Drėgmė 44%
Slėgis 1007 hPa
Matomumas: 16.1 km
Apsiniaukę ne aukštis 5500 ft

METAR: KACK 280653Z AUTO 26023G31KT 10SM OVC055 02/M09 A2973 RMK AO2 PK WND 26036/0620 SLP067 T00171089

Laikas: 02:26 (07:26 UTC)

Prognozė

Ataskaita buvo paskelbta 2 valandos ir 2 minutes, ne 05:24 UTC
Prognozė galioja nuo 28 metu 06 UTC su 29 metu 06 UTC
Vėjas 20 kt iš Vakarų su gūsio iki 35 kt
Matomumas: 10 km
Su prošvaistėmis ne aukštis 5000 ft
Nuo 29 metu 0000 UTC
Vėjas 15 kt iš Vakarų su gūsio iki 23 kt
Matomumas: 10 km
Su prošvaistėmis ne aukštis 6000 ft
Nuo 29 metu 0300 UTC
Vėjas 13 kt iš Vakarų
Matomumas: 10 km
Su prošvaistėmis ne aukštis 6000 ft

TAF: KACK 280524Z 2806/2906 27020G35KT P6SM BKN050 FM290000 26015G23KT P6SM BKN060 FM290300 26013KT P6SM BKN060

Orai ataskaitas ir orų prognozės (METAR, TAF).

turimą stotys yra geltonos ir raudonos taškus žemėlapyje.

Perkelti pele per norėdami pamatyti stoties vardą.

Tada spustelėkite, norėdami matyti oro stebėjimo ir prognozės.

Norėdami pakeisti žemėlapį: spustelėkite ant žalios mygtukų su juodo kryžiaus žemyn,; žalią mygtuką su brūkšneliu, jei norite nutolinti; arba žalių rodyklių gretimoms žemėlapius.


METAR-TAF: